Time;durP1;ratioP1;P1;durP2;ratioP2;P2;SDS_P1;SDS_P2;PMS_P1;PMS_P2;Temp;Humidity;BMP_temperature;BMP_pressure;BME280_temperature;BME280_humidity;BME280_pressure;Samples;Min_cycle;Max_cycle;Signal;HPM_P1;HPM_P2
2022/06/02 00:01:49;;;;;;;3.57;3.47;;;;;;;22.41;94.61;99460.91;5031918;28;20201;-61
2022/06/02 00:04:25;;;;;;;3.90;3.20;;;;;;;22.35;94.82;99467.44;5031589;28;20259;-61
2022/06/02 00:07:00;;;;;;;4.00;3.70;;;;;;;22.33;95.11;99464.09;5032603;28;20668;-60
2022/06/02 00:09:45;;;;;;;3.40;3.20;;;;;;;22.33;95.14;99463.25;5032574;28;20225;-60
2022/06/02 00:12:22;;;;;;;3.80;3.60;;;;;;;22.29;95.85;99467.91;5032221;28;20194;-61
2022/06/02 00:14:57;;;;;;;3.83;3.53;;;;;;;22.22;96.02;99474.56;5031735;28;20902;-60
2022/06/02 00:17:33;;;;;;;3.60;3.40;;;;;;;22.19;96.22;99471.34;5031844;28;20203;-61
2022/06/02 00:20:05;;;;;;;5.43;3.33;;;;;;;22.15;95.62;99467.28;5032086;28;20240;-61
2022/06/02 00:22:42;;;;;;;3.60;3.43;;;;;;;22.02;95.91;99456.97;5031213;28;20280;-60
2022/06/02 00:25:18;;;;;;;3.50;3.30;;;;;;;21.98;96.22;99452.91;5031715;28;20191;-62
2022/06/02 00:27:56;;;;;;;3.30;3.00;;;;;;;22.06;96.56;99468.00;5031983;28;20263;-61
2022/06/02 00:30:25;;;;;;;3.70;3.30;;;;;;;22.05;96.79;99471.56;5031739;28;20201;-61
2022/06/02 00:33:00;;;;;;;3.50;3.30;;;;;;;21.98;96.86;99453.75;5032896;28;20258;-61
2022/06/02 00:35:35;;;;;;;3.53;3.33;;;;;;;21.94;97.31;99454.91;5032011;28;20251;-61
2022/06/02 00:38:04;;;;;;;3.40;3.20;;;;;;;21.90;97.15;99461.34;5032168;28;20260;-61
2022/06/02 00:40:35;;;;;;;3.70;3.50;;;;;;;21.76;97.79;99440.63;5032733;28;20197;-61
2022/06/02 00:43:16;;;;;;;4.17;3.90;;;;;;;21.81;98.07;99455.94;5032600;28;20202;-61
2022/06/02 00:45:45;;;;;;;5.30;3.60;;;;;;;21.82;98.04;99454.97;5032405;28;20299;-61
2022/06/02 00:48:21;;;;;;;3.87;3.57;;;;;;;21.82;98.04;99461.03;5032695;28;20213;-61
2022/06/02 00:50:56;;;;;;;4.00;3.77;;;;;;;21.81;97.88;99459.38;5040706;28;20739;-61
2022/06/02 00:53:41;;;;;;;4.53;4.33;;;;;;;21.81;97.60;99461.97;5031745;28;20730;-60
2022/06/02 00:59:17;;;;;;;3.33;3.13;;;;;;;21.82;97.26;99454.97;5032308;28;20199;-61
2022/06/02 01:01:44;;;;;;;3.53;3.33;;;;;;;21.76;97.44;99453.69;5043996;28;20266;-61
2022/06/02 01:04:12;;;;;;;4.37;4.13;;;;;;;21.76;98.28;99461.50;5052385;28;21177;-61
2022/06/02 01:06:53;;;;;;;4.40;4.00;;;;;;;21.73;97.71;99451.28;5049684;28;20546;-61
2022/06/02 01:09:47;;;;;;;4.00;3.80;;;;;;;21.75;97.92;99452.00;5029434;28;20209;-61
2022/06/02 01:12:43;;;;;;;5.13;3.63;;;;;;;21.73;97.98;99453.91;5022669;28;20197;-61
2022/06/02 01:15:23;;;;;;;3.40;3.30;;;;;;;21.71;98.00;99449.75;5029097;28;20224;-61
2022/06/02 01:18:02;;;;;;;3.67;3.47;;;;;;;21.62;97.50;99435.59;5029332;28;20200;-61
2022/06/02 01:20:39;;;;;;;4.00;3.70;;;;;;;21.65;96.99;99448.41;5029308;28;20200;-61
2022/06/02 01:23:52;;;;;;;4.73;4.30;;;;;;;21.57;97.15;99450.78;5029593;28;20669;-61
2022/06/02 01:26:44;;;;;;;3.90;3.60;;;;;;;21.45;97.26;99438.66;4983864;28;20332;-60
2022/06/02 01:29:38;;;;;;;6.50;3.40;;;;;;;21.37;97.70;99439.22;5032962;28;20221;-61
2022/06/02 01:32:09;;;;;;;4.73;4.13;;;;;;;21.36;97.67;99439.31;5032455;28;20247;-60
2022/06/02 01:34:54;;;;;;;6.33;3.63;;;;;;;21.35;97.62;99450.72;5029730;28;20208;-61
2022/06/02 01:37:31;;;;;;;4.07;3.33;;;;;;;21.28;97.46;99437.28;5030570;28;20205;-61
2022/06/02 01:40:12;;;;;;;3.63;3.43;;;;;;;21.35;97.64;99445.50;5030396;28;20680;-61
2022/06/02 01:42:54;;;;;;;3.67;3.47;;;;;;;21.31;97.17;99444.03;5029260;28;20267;-61
2022/06/02 01:45:35;;;;;;;3.00;2.80;;;;;;;21.25;97.26;99447.94;5019797;28;20295;-61
2022/06/02 01:48:11;;;;;;;16.57;3.37;;;;;;;21.23;97.78;99446.38;5010796;28;20198;-61
2022/06/02 01:50:50;;;;;;;3.60;3.40;;;;;;;21.26;97.51;99443.56;5010396;28;20252;-61
2022/06/02 01:53:31;;;;;;;2.90;2.80;;;;;;;21.18;97.82;99440.66;5010609;28;20229;-61
2022/06/02 01:56:28;;;;;;;3.63;3.43;;;;;;;21.15;98.02;99440.91;5009334;28;20229;-61
2022/06/02 01:59:08;;;;;;;3.40;3.20;;;;;;;21.13;98.32;99443.59;5007980;28;20258;-61
2022/06/02 02:01:46;;;;;;;3.37;3.27;;;;;;;21.12;99.00;99441.13;5009869;28;20296;-61
2022/06/02 02:04:42;;;;;;;3.40;3.30;;;;;;;21.10;99.09;99432.59;5009414;28;20282;-61
2022/06/02 02:07:16;;;;;;;4.13;3.90;;;;;;;21.08;99.48;99444.84;5003957;28;20210;-61
2022/06/02 02:09:56;;;;;;;3.30;3.10;;;;;;;21.02;99.32;99434.88;5010703;28;20302;-61
2022/06/02 02:12:35;;;;;;;3.97;3.57;;;;;;;21.00;99.99;99444.59;5009532;28;20201;-61
2022/06/02 02:15:15;;;;;;;6.80;3.20;;;;;;;20.82;100.00;99433.69;5010417;28;20260;-61
2022/06/02 02:17:57;;;;;;;3.23;3.13;;;;;;;20.72;100.00;99430.91;5009601;28;20212;-61
2022/06/02 02:20:31;;;;;;;8.77;3.87;;;;;;;20.53;100.00;99427.94;5010111;28;20263;-60
2022/06/02 02:23:06;;;;;;;4.07;3.50;;;;;;;20.48;100.00;99434.44;5011129;28;20739;-60
2022/06/02 02:25:40;;;;;;;5.90;3.70;;;;;;;20.34;100.00;99433.63;5013267;28;20588;-60
2022/06/02 02:28:16;;;;;;;3.33;3.13;;;;;;;20.31;100.00;99438.22;5010036;28;20243;-61
2022/06/02 02:30:52;;;;;;;3.97;3.77;;;;;;;20.28;100.00;99431.44;5009045;28;20204;-61
2022/06/02 02:33:33;;;;;;;3.63;3.33;;;;;;;20.27;100.00;99432.38;5009695;28;20695;-61
2022/06/02 02:36:10;;;;;;;5.90;3.60;;;;;;;20.09;100.00;99411.97;5010846;28;20638;-66
2022/06/02 02:38:48;;;;;;;3.30;3.07;;;;;;;20.22;100.00;99436.22;5009961;28;20200;-67
2022/06/02 02:41:23;;;;;;;3.87;3.57;;;;;;;20.22;100.00;99433.59;5010384;28;20197;-67
2022/06/02 02:43:57;;;;;;;3.17;2.97;;;;;;;20.17;100.00;99439.13;5012452;28;20206;-67
2022/06/02 02:46:31;;;;;;;3.60;3.37;;;;;;;20.11;100.00;99441.31;5017143;28;20232;-67
2022/06/02 02:49:05;;;;;;;3.23;3.00;;;;;;;20.00;100.00;99438.63;5017208;28;20218;-61
2022/06/02 02:51:47;;;;;;;4.20;3.33;;;;;;;19.77;100.00;99419.38;5017139;28;20211;-61
2022/06/02 02:54:21;;;;;;;3.10;3.00;;;;;;;19.84;100.00;99444.00;5017166;28;20261;-60
2022/06/02 02:56:53;;;;;;;4.00;3.67;;;;;;;19.78;100.00;99439.22;5014750;28;20213;-60
2022/06/02 02:59:29;;;;;;;3.57;3.27;;;;;;;19.76;100.00;99444.53;5015977;28;20192;-61
2022/06/02 03:02:06;;;;;;;4.37;3.60;;;;;;;19.77;100.00;99446.19;5017249;28;20200;-60
2022/06/02 03:04:46;;;;;;;3.90;3.80;;;;;;;19.76;100.00;99452.34;5016749;28;20263;-60
2022/06/02 03:07:14;;;;;;;4.20;3.90;;;;;;;19.80;100.00;99447.78;5017546;28;20640;-60
2022/06/02 03:09:45;;;;;;;3.50;3.20;;;;;;;19.74;100.00;99438.59;5016991;28;20694;-61
2022/06/02 03:12:26;;;;;;;3.90;3.70;;;;;;;19.77;100.00;99456.59;5011525;28;20263;-65
2022/06/02 03:15:12;;;;;;;3.40;3.20;;;;;;;19.62;100.00;99433.38;5015499;28;20576;-65
2022/06/02 03:18:02;;;;;;;3.33;3.20;;;;;;;19.62;100.00;99444.63;5015131;28;20206;-67
2022/06/02 03:20:41;;;;;;;2.80;2.70;;;;;;;19.56;100.00;99432.03;5016216;28;20211;-67
2022/06/02 03:23:37;;;;;;;2.60;2.50;;;;;;;19.61;100.00;99442.94;5018205;28;20680;-67
2022/06/02 03:26:07;;;;;;;3.47;3.30;;;;;;;19.61;100.00;99432.53;5016376;28;20209;-67
2022/06/02 03:28:42;;;;;;;3.13;2.87;;;;;;;19.74;100.00;99443.78;5015984;28;20210;-67
2022/06/02 03:31:13;;;;;;;3.40;3.30;;;;;;;19.82;100.00;99446.72;5014863;28;20211;-67
2022/06/02 03:34:00;;;;;;;3.13;2.97;;;;;;;19.93;100.00;99444.22;5014439;28;20204;-67
2022/06/02 03:36:49;;;;;;;6.23;3.57;;;;;;;20.09;100.00;99445.78;5015689;28;20202;-67
2022/06/02 03:39:30;;;;;;;5.30;3.43;;;;;;;20.22;100.00;99444.84;5015509;28;20203;-67
2022/06/02 03:42:17;;;;;;;5.47;3.50;;;;;;;20.38;100.00;99450.69;5015676;28;20281;-66
2022/06/02 03:45:01;;;;;;;2.50;2.23;;;;;;;20.55;100.00;99444.28;5015499;28;20232;-67
2022/06/02 03:47:49;;;;;;;3.20;2.87;;;;;;;20.77;100.00;99446.22;5015420;28;20194;-67
2022/06/02 03:50:43;;;;;;;2.80;2.70;;;;;;;20.98;100.00;99454.28;5015998;28;20283;-68
2022/06/02 03:53:37;;;;;;;2.93;2.77;;;;;;;21.24;100.00;99459.31;5014114;28;20721;-67
2022/06/02 03:56:19;;;;;;;3.37;2.97;;;;;;;21.46;99.86;99461.16;5011278;28;20234;-66
2022/06/02 03:59:05;;;;;;;3.23;3.03;;;;;;;21.70;100.00;99464.56;5009536;28;20213;-67
2022/06/02 04:01:37;;;;;;;3.10;3.00;;;;;;;21.92;97.56;99469.88;5009798;28;20210;-67
2022/06/02 04:04:18;;;;;;;3.60;3.37;;;;;;;22.10;95.78;99461.59;5011626;28;20236;-67
2022/06/02 04:07:03;;;;;;;3.53;3.03;;;;;;;22.23;94.51;99457.09;5010693;28;20632;-67
2022/06/02 04:09:48;;;;;;;3.30;3.00;;;;;;;22.42;92.41;99465.19;5011515;28;20806;-67
2022/06/02 04:15:49;;;;;;;3.40;3.20;;;;;;;22.76;90.21;99459.00;5011760;28;20248;-67
2022/06/02 04:18:31;;;;;;;2.50;2.40;;;;;;;22.93;91.20;99461.09;5011525;28;20252;-67
2022/06/02 04:21:09;;;;;;;2.57;2.47;;;;;;;23.08;90.36;99461.63;5015756;28;20201;-67
2022/06/02 04:23:54;;;;;;;3.60;3.40;;;;;;;23.36;90.61;99468.09;5012656;28;20202;-67
2022/06/02 04:26:33;;;;;;;3.93;2.97;;;;;;;23.61;89.36;99470.38;5011832;28;20352;-67
2022/06/02 04:29:17;;;;;;;3.43;2.83;;;;;;;23.74;88.30;99463.19;5012324;28;20213;-67
2022/06/02 04:31:54;;;;;;;3.00;2.90;;;;;;;23.87;86.41;99450.72;5011168;28;20276;-67
2022/06/02 04:34:31;;;;;;;3.10;3.00;;;;;;;24.21;84.72;99474.06;5011680;28;20201;-67
2022/06/02 04:37:05;;;;;;;3.63;3.43;;;;;;;24.44;84.94;99467.72;5011690;28;20698;-67
2022/06/02 04:39:41;;;;;;;2.97;2.87;;;;;;;24.54;84.37;99464.16;5012172;28;20198;-68
2022/06/02 04:42:17;;;;;;;3.07;2.97;;;;;;;24.67;83.32;99471.78;5012679;28;20201;-67
2022/06/02 04:44:51;;;;;;;8.07;2.93;;;;;;;24.87;83.82;99470.91;5012365;28;20300;-66
2022/06/02 04:47:26;;;;;;;3.17;3.07;;;;;;;25.05;82.62;99466.66;5012590;28;20736;-67
2022/06/02 04:50:00;;;;;;;3.23;3.03;;;;;;;25.29;80.80;99479.41;5012306;28;20222;-66
2022/06/02 04:52:35;;;;;;;4.67;3.03;;;;;;;25.44;78.57;99477.19;5011495;28;20205;-67
2022/06/02 04:55:11;;;;;;;3.63;3.43;;;;;;;25.70;77.97;99477.47;5011384;28;20206;-67
2022/06/02 04:57:45;;;;;;;2.47;2.37;;;;;;;25.80;76.71;99479.13;5012152;28;20547;-67
2022/06/02 05:00:22;;;;;;;3.67;2.80;;;;;;;25.93;73.39;99484.06;5012579;28;20682;-67
2022/06/02 05:02:58;;;;;;;4.47;2.57;;;;;;;26.03;74.99;99479.63;5012318;28;20197;-67
2022/06/02 05:05:35;;;;;;;2.27;2.17;;;;;;;26.15;75.02;99462.72;5012294;28;20264;-67
2022/06/02 05:08:24;;;;;;;3.93;2.50;;;;;;;26.52;76.09;99475.91;5011573;28;20198;-67
2022/06/02 05:10:59;;;;;;;2.57;2.47;;;;;;;26.60;72.33;99468.09;5010212;28;20218;-67
2022/06/02 05:13:35;;;;;;;3.17;2.87;;;;;;;26.82;70.58;99483.50;5011611;28;20666;-68
2022/06/02 05:16:26;;;;;;;2.73;2.63;;;;;;;27.00;71.03;99481.75;5010495;28;20205;-67
2022/06/02 05:19:25;;;;;;;2.37;2.27;;;;;;;27.18;69.11;99484.38;5008894;28;20342;-69
2022/06/02 05:22:20;;;;;;;2.93;2.73;;;;;;;27.24;68.31;99485.63;5005338;28;20206;-68
2022/06/02 05:25:20;;;;;;;4.43;2.70;;;;;;;27.26;68.67;99486.28;4984476;28;20278;-66
2022/06/02 05:28:11;;;;;;;3.37;3.07;;;;;;;27.26;70.96;99483.66;5010558;28;20210;-68
2022/06/02 05:31:14;;;;;;;4.03;2.70;;;;;;;27.42;69.22;99489.06;5008054;28;20217;-68
2022/06/02 05:34:03;;;;;;;4.87;2.83;;;;;;;27.57;68.34;99490.22;4987225;28;20201;-68
2022/06/02 05:36:48;;;;;;;4.27;4.07;;;;;;;27.73;67.75;99492.97;5009268;28;20579;-67
2022/06/02 05:39:47;;;;;;;2.43;2.33;;;;;;;27.96;68.38;99480.97;5010051;28;20206;-65
2022/06/02 05:42:29;;;;;;;2.70;2.60;;;;;;;28.07;68.05;99491.28;5009594;28;20229;-63
2022/06/02 05:45:16;;;;;;;5.87;2.63;;;;;;;28.32;66.44;99496.69;5019476;28;20705;-67
2022/06/02 05:48:00;;;;;;;3.47;3.17;;;;;;;28.40;66.81;99494.13;5027496;28;20613;-67
2022/06/02 05:50:36;;;;;;;2.10;1.97;;;;;;;28.35;67.13;99491.94;5027870;28;20217;-66
2022/06/02 05:53:15;;;;;;;5.97;2.77;;;;;;;28.46;66.34;99493.47;5026904;28;20397;-67
2022/06/02 05:55:58;;;;;;;2.57;2.47;;;;;;;28.61;64.68;99491.88;5028215;28;20653;-66
2022/06/02 05:58:49;;;;;;;2.67;2.57;;;;;;;28.87;65.85;99491.84;5029394;28;20221;-66
2022/06/02 06:01:25;;;;;;;2.78;2.58;;;;;;;29.12;62.91;99497.03;5015969;28;20201;-67
2022/06/02 06:04:22;;;;;;;2.27;2.17;;;;;;;29.39;62.96;99497.78;5030520;28;20205;-68
2022/06/02 06:06:55;;;;;;;2.50;2.40;;;;;;;29.53;60.23;99502.41;5029126;28;20214;-67
2022/06/02 06:09:37;;;;;;;4.72;2.47;;;;;;;29.65;59.56;99511.66;5027597;28;20267;-67
2022/06/02 06:12:48;;;;;;;3.05;2.85;;;;;;;30.01;60.26;99505.06;5027456;28;20653;-67
2022/06/02 06:15:26;;;;;;;3.65;2.60;;;;;;;30.07;58.90;99507.03;4968035;28;20619;-67
2022/06/02 06:18:00;;;;;;;2.45;2.35;;;;;;;30.15;58.24;99501.72;4969562;28;20205;-64
2022/06/02 06:20:45;;;;;;;2.50;2.40;;;;;;;30.43;59.85;99499.56;5005799;28;20693;-66
2022/06/02 06:23:34;;;;;;;4.40;2.28;;;;;;;30.54;57.40;99500.97;5026369;28;20205;-66
2022/06/02 06:26:21;;;;;;;2.40;2.22;;;;;;;30.79;54.65;99499.91;5031342;28;20201;-65
2022/06/02 06:29:12;;;;;;;3.55;2.15;;;;;;;31.03;57.55;99499.78;5028308;28;20646;-67
2022/06/02 06:31:48;;;;;;;2.75;2.55;;;;;;;31.26;58.38;99493.69;5027534;28;20281;-67
2022/06/02 06:34:25;;;;;;;2.53;2.40;;;;;;;31.50;54.77;99501.50;5026670;28;20205;-67
2022/06/02 06:37:10;;;;;;;2.35;2.17;;;;;;;31.63;53.11;99496.44;5027349;28;20296;-68
2022/06/02 06:39:51;;;;;;;2.45;2.35;;;;;;;31.71;53.17;99499.84;5027457;28;20205;-67
2022/06/02 06:42:35;;;;;;;2.70;2.50;;;;;;;31.81;54.61;99496.94;5028117;28;20769;-68
2022/06/02 06:45:10;;;;;;;2.58;2.47;;;;;;;31.95;53.32;99497.97;5022611;28;20226;-67
2022/06/02 06:47:42;;;;;;;1.83;1.73;;;;;;;32.13;52.04;99485.22;5007814;28;20205;-67
2022/06/02 06:50:17;;;;;;;2.42;2.22;;;;;;;32.41;51.86;99488.06;5008066;28;20575;-67
2022/06/02 06:53:10;;;;;;;2.38;2.28;;;;;;;32.27;51.40;99483.56;5008402;28;20271;-67
2022/06/02 06:55:48;;;;;;;1.95;1.85;;;;;;;32.37;53.14;99484.97;5006564;28;20209;-66
2022/06/02 06:58:25;;;;;;;2.25;2.15;;;;;;;32.13;50.94;99483.38;5006998;28;20264;-67
2022/06/02 07:00:59;;;;;;;2.40;2.20;;;;;;;31.98;50.47;99493.13;5009048;28;20201;-68
2022/06/02 07:03:39;;;;;;;2.33;2.22;;;;;;;32.07;51.17;99494.72;5006893;28;20208;-67
2022/06/02 07:06:12;;;;;;;2.05;1.95;;;;;;;32.20;53.87;99484.31;5007195;28;20736;-67
2022/06/02 07:08:46;;;;;;;1.83;1.73;;;;;;;32.38;51.53;99488.41;5008319;28;20209;-68
2022/06/02 07:14:11;;;;;;;2.38;2.25;;;;;;;32.69;50.55;99495.22;5007479;28;20214;-68
2022/06/02 07:16:44;;;;;;;3.10;2.88;;;;;;;32.75;53.24;99493.63;5007298;28;20736;-67
2022/06/02 07:19:19;;;;;;;2.53;2.17;;;;;;;32.94;50.57;99498.34;5007354;28;20209;-67
2022/06/02 07:21:52;;;;;;;3.38;2.13;;;;;;;33.14;50.59;99494.13;5008058;28;20229;-67
2022/06/02 07:24:30;;;;;;;2.50;2.40;;;;;;;33.31;48.85;99496.53;5011833;28;20265;-68
2022/06/02 07:27:08;;;;;;;2.40;2.30;;;;;;;33.65;48.31;99502.00;5008237;28;20206;-67
2022/06/02 07:29:48;;;;;;;2.60;2.08;;;;;;;33.84;49.10;99503.16;5009502;28;20218;-67
2022/06/02 07:32:40;;;;;;;2.70;2.50;;;;;;;33.80;48.15;99504.59;5012156;28;20738;-69
2022/06/02 07:35:41;;;;;;;3.55;2.10;;;;;;;34.08;48.87;99500.09;5011145;28;20202;-68
2022/06/02 07:38:20;;;;;;;2.53;2.42;;;;;;;33.91;46.95;99504.88;5004856;28;20201;-67
2022/06/02 07:41:01;;;;;;;2.22;2.13;;;;;;;33.79;46.87;99506.41;5012122;28;20198;-68
2022/06/02 07:43:50;;;;;;;2.40;2.10;;;;;;;33.83;47.08;99499.66;5011723;28;20223;-69
2022/06/02 07:46:40;;;;;;;3.25;2.40;;;;;;;34.10;46.77;99509.50;5026367;28;20232;-67
2022/06/02 07:49:24;;;;;;;2.13;2.03;;;;;;;34.28;45.02;99507.19;5028811;28;20292;-67
2022/06/02 07:51:58;;;;;;;2.70;2.50;;;;;;;34.48;44.65;99506.47;5031073;28;20227;-68
2022/06/02 07:54:35;;;;;;;2.28;2.17;;;;;;;34.16;43.78;99513.25;5030877;28;20476;-69
2022/06/02 07:57:19;;;;;;;2.33;2.22;;;;;;;33.67;44.30;99507.94;5031548;28;20200;-70
2022/06/02 07:59:58;;;;;;;1.90;1.80;;;;;;;33.69;46.02;99489.97;5031217;28;20201;-69
2022/06/02 08:02:41;;;;;;;2.63;2.47;;;;;;;33.70;45.72;99507.56;5030757;28;20215;-68
2022/06/02 08:05:18;;;;;;;2.20;2.05;;;;;;;34.07;45.64;99496.59;5028375;28;20209;-69
2022/06/02 08:07:51;;;;;;;2.60;2.40;;;;;;;34.26;43.15;99503.91;5028751;28;20307;-67
2022/06/02 08:10:24;;;;;;;2.33;2.22;;;;;;;34.05;44.57;99506.63;5029912;28;20620;-68
2022/06/02 08:12:59;;;;;;;2.55;2.45;;;;;;;34.09;44.12;99502.53;5028235;28;20300;-67
2022/06/02 08:15:38;;;;;;;3.63;2.33;;;;;;;34.24;43.36;99516.59;5031069;28;20233;-72
2022/06/02 08:18:24;;;;;;;2.50;2.40;;;;;;;33.97;43.83;99508.59;5029898;28;20282;-69
2022/06/02 08:20:58;;;;;;;2.15;2.05;;;;;;;34.05;44.21;99506.63;5027816;28;20213;-68
2022/06/02 08:23:53;;;;;;;6.32;2.65;;;;;;;34.25;44.52;99502.25;5031057;28;20303;-69
2022/06/02 08:26:29;;;;;;;1.98;1.88;;;;;;;34.54;45.38;99506.50;5029908;28;20248;-66
2022/06/02 08:29:10;;;;;;;2.33;2.22;;;;;;;34.77;42.36;99500.91;5026689;28;20718;-66
2022/06/02 08:31:56;;;;;;;5.90;2.47;;;;;;;34.92;42.81;99496.28;5031110;28;20213;-66
2022/06/02 08:34:35;;;;;;;1.98;1.88;;;;;;;34.88;41.78;99497.69;5030830;28;20275;-68
2022/06/02 08:37:14;;;;;;;2.13;1.92;;;;;;;34.93;41.18;99495.22;5029585;28;20669;-69
2022/06/02 08:40:15;;;;;;;5.78;2.55;;;;;;;34.56;41.25;99495.69;5029765;28;20255;-67
2022/06/02 08:43:20;;;;;;;3.28;3.08;;;;;;;34.50;42.92;99494.63;4979507;28;20574;-66
2022/06/02 08:46:25;;;;;;;2.28;2.10;;;;;;;34.21;44.20;99493.03;4994442;28;20273;-71
2022/06/02 08:49:22;;;;;;;2.47;2.38;;;;;;;34.60;43.39;99499.59;5030739;28;20643;-67
2022/06/02 08:52:22;;;;;;;3.33;3.05;;;;;;;34.88;43.44;99491.53;5045790;28;20216;-68
2022/06/02 08:55:49;;;;;;;1.88;1.80;;;;;;;35.04;43.30;99485.84;5034788;28;20288;-67
2022/06/02 08:58:45;;;;;;;2.53;2.42;;;;;;;34.89;43.00;99483.34;5037382;28;20924;-67
2022/06/02 09:01:27;;;;;;;4.00;2.33;;;;;;;34.61;41.73;99490.59;5040517;28;20561;-71
2022/06/02 09:04:29;;;;;;;3.75;3.45;;;;;;;34.59;43.01;99496.09;5049332;28;20210;-67
2022/06/02 09:07:40;;;;;;;2.45;2.25;;;;;;;34.76;42.92;99491.28;5033837;28;20200;-69
2022/06/02 09:10:48;;;;;;;2.78;2.58;;;;;;;34.64;41.93;99495.53;4973590;28;20274;-70
2022/06/02 09:13:42;;;;;;;2.47;2.38;;;;;;;34.62;42.77;99492.25;5022972;28;20767;-70
2022/06/02 09:16:21;;;;;;;2.75;1.88;;;;;;;34.52;39.76;99497.09;5034810;28;20205;-67
2022/06/02 09:19:03;;;;;;;4.03;2.42;;;;;;;34.90;39.83;99490.31;5042176;28;20606;-67
2022/06/02 09:21:50;;;;;;;3.00;1.95;;;;;;;35.03;39.94;99492.19;5034116;28;20198;-68
2022/06/02 09:24:27;;;;;;;2.05;1.95;;;;;;;35.09;39.62;99492.19;5035487;28;20209;-71
2022/06/02 09:27:42;;;;;;;2.20;2.10;;;;;;;34.93;41.32;99495.22;5036777;28;20208;-67
2022/06/02 09:30:15;;;;;;;2.13;1.92;;;;;;;35.01;41.71;99479.06;5046501;28;20217;-67
2022/06/02 09:32:58;;;;;;;2.63;2.42;;;;;;;35.17;40.52;99485.91;5029456;28;20198;-68
2022/06/02 09:35:29;;;;;;;2.10;2.00;;;;;;;35.02;38.79;99488.72;5034297;28;20201;-67
2022/06/02 09:38:36;;;;;;;2.35;1.95;;;;;;;34.99;38.13;99490.97;5034531;28;20253;-66
2022/06/02 09:41:28;;;;;;;2.25;2.15;;;;;;;34.72;40.00;99487.38;5030487;28;20213;-66
2022/06/02 09:44:05;;;;;;;4.00;2.28;;;;;;;34.86;39.51;99478.41;5030229;28;20201;-69
2022/06/02 09:47:20;;;;;;;2.58;2.47;;;;;;;34.82;39.14;99485.16;5005911;28;20269;-69
2022/06/02 09:50:17;;;;;;;2.08;1.98;;;;;;;34.98;40.64;99481.31;4961651;28;20207;-67
2022/06/02 09:53:13;;;;;;;4.32;1.98;;;;;;;35.19;38.57;99476.66;4967220;28;20199;-68
2022/06/02 09:55:59;;;;;;;2.10;2.00;;;;;;;35.17;36.43;99478.72;5006308;28;20213;-68
2022/06/02 09:58:41;;;;;;;2.20;2.10;;;;;;;35.11;36.55;99476.88;5009320;28;20320;-69
2022/06/02 10:01:24;;;;;;;1.98;1.88;;;;;;;35.02;37.37;99477.22;5009650;28;20202;-69
2022/06/02 10:04:15;;;;;;;3.05;2.70;;;;;;;34.62;39.84;99476.28;5008492;28;20206;-69
2022/06/02 10:07:18;;;;;;;2.22;2.20;;;;;;;34.25;40.03;99475.63;5006905;28;20264;-68
2022/06/02 10:10:17;;;;;;;2.30;2.20;;;;;;;34.45;39.04;99474.91;5008069;28;20265;-69
2022/06/02 10:13:06;;;;;;;5.50;2.42;;;;;;;34.67;38.63;99468.53;5009188;28;20757;-70
2022/06/02 10:16:03;;;;;;;2.10;1.98;;;;;;;34.59;39.95;99471.31;5008705;28;20210;-69
2022/06/02 10:19:04;;;;;;;2.25;2.15;;;;;;;34.74;38.75;99469.34;5011724;28;20206;-68
2022/06/02 10:21:44;;;;;;;2.63;2.42;;;;;;;34.49;36.22;99476.19;5009443;28;20194;-70
2022/06/02 10:24:53;;;;;;;2.13;2.03;;;;;;;34.44;36.86;99465.31;5008775;28;20202;-68
2022/06/02 10:27:45;;;;;;;1.80;1.70;;;;;;;34.62;35.99;99465.63;5004865;28;20265;-68
2022/06/02 10:30:52;;;;;;;2.30;2.10;;;;;;;34.73;35.35;99457.06;4987887;28;20231;-70
2022/06/02 10:33:45;;;;;;;2.00;1.90;;;;;;;34.95;35.24;99455.91;5008961;28;20260;-68
2022/06/02 10:36:56;;;;;;;2.05;1.95;;;;;;;35.09;37.35;99436.22;5012020;28;20721;-68
2022/06/02 10:39:39;;;;;;;2.10;1.90;;;;;;;35.18;35.92;99436.91;5008683;28;20250;-67
2022/06/02 10:42:23;;;;;;;1.65;1.50;;;;;;;35.26;35.59;99442.84;5011577;28;20236;-69
2022/06/02 10:45:20;;;;;;;1.48;1.48;;;;;;;35.19;34.91;99439.34;5015723;28;20233;-68
2022/06/02 10:48:42;;;;;;;1.65;1.55;;;;;;;35.41;32.74;99433.84;5027525;28;20216;-67
2022/06/02 10:51:37;;;;;;;3.38;2.63;;;;;;;35.17;34.82;99417.44;5029049;28;20264;-69
2022/06/02 10:54:57;;;;;;;1.88;1.77;;;;;;;35.47;34.79;99433.03;5030261;28;20625;-69
2022/06/02 10:57:53;;;;;;;1.50;1.50;;;;;;;35.55;34.51;99435.47;4943234;28;20356;-68
2022/06/02 11:00:35;;;;;;;1.98;1.88;;;;;;;35.78;34.99;99431.38;4946738;28;20207;-68
2022/06/02 11:03:41;;;;;;;1.55;1.45;;;;;;;35.60;33.05;99430.38;5010853;28;20264;-68
2022/06/02 11:06:46;;;;;;;1.92;1.75;;;;;;;35.01;32.55;99423.13;5026067;28;20196;-67
2022/06/02 11:09:58;;;;;;;1.40;1.40;;;;;;;34.69;32.08;99424.69;5042037;28;20201;-67
2022/06/02 11:13:00;;;;;;;1.90;1.80;;;;;;;34.48;31.73;99424.75;5043301;28;20550;-68
2022/06/02 11:16:11;;;;;;;1.48;1.40;;;;;;;34.21;31.83;99431.00;5042338;28;20200;-68
2022/06/02 11:19:04;;;;;;;2.15;1.50;;;;;;;34.56;31.62;99421.13;5033820;28;20213;-67
2022/06/02 11:22:05;;;;;;;1.60;1.60;;;;;;;34.65;32.77;99419.94;5036022;28;20205;-67
2022/06/02 11:25:04;;;;;;;1.40;1.40;;;;;;;34.79;33.90;99410.97;5033291;28;20215;-67
2022/06/02 11:27:51;;;;;;;1.50;1.42;;;;;;;34.66;34.31;99408.28;5010506;28;20638;-67
2022/06/02 11:30:51;;;;;;;1.48;1.38;;;;;;;34.58;33.10;99406.56;5032150;28;20205;-68
2022/06/02 11:33:50;;;;;;;1.25;1.25;;;;;;;34.66;33.59;99403.78;4990921;28;20212;-70
2022/06/02 11:36:55;;;;;;;1.55;1.55;;;;;;;34.47;33.64;99401.03;5042756;28;20275;-66
2022/06/02 11:39:49;;;;;;;1.85;1.48;;;;;;;34.48;34.37;99397.31;5010159;28;20211;-64
2022/06/02 11:42:34;;;;;;;1.60;1.50;;;;;;;34.70;34.04;99404.19;5034980;28;20301;-65
2022/06/02 11:45:08;;;;;;;1.60;1.50;;;;;;;34.74;33.69;99397.44;5027069;28;20233;-64
2022/06/02 11:48:01;;;;;;;1.50;1.40;;;;;;;34.88;33.98;99391.13;5014090;28;20237;-65
2022/06/02 11:50:54;;;;;;;1.88;1.40;;;;;;;35.09;33.99;99388.25;5013053;28;20206;-64
2022/06/02 11:53:36;;;;;;;1.70;1.60;;;;;;;35.17;33.18;99388.09;5012609;28;20449;-68
2022/06/02 11:56:09;;;;;;;1.60;1.50;;;;;;;35.11;33.53;99386.25;5013818;28;20442;-70
2022/06/02 11:59:05;;;;;;;3.42;1.85;;;;;;;35.19;32.05;99385.22;5013881;28;20284;-68
2022/06/02 12:01:55;;;;;;;1.58;1.42;;;;;;;35.30;33.38;99374.78;5012775;28;20595;-68
2022/06/02 12:04:52;;;;;;;2.10;1.95;;;;;;;35.57;34.86;99369.44;5012691;28;20297;-67
2022/06/02 12:08:07;;;;;;;1.88;1.77;;;;;;;35.64;33.06;99371.06;5013476;28;20928;-67
2022/06/02 12:11:08;;;;;;;1.83;1.73;;;;;;;35.75;32.15;99373.13;5015116;28;20229;-68
2022/06/02 12:13:51;;;;;;;1.45;1.45;;;;;;;35.61;33.71;99370.66;5016046;28;20235;-69
2022/06/02 12:16:40;;;;;;;1.73;1.65;;;;;;;35.23;33.65;99367.81;5018022;28;20202;-70
2022/06/02 12:19:32;;;;;;;1.98;1.98;;;;;;;34.70;34.55;99357.06;5016812;28;20818;-70
2022/06/02 12:22:17;;;;;;;2.10;2.00;;;;;;;34.70;33.45;99356.25;5013236;28;20255;-71
2022/06/02 12:25:01;;;;;;;1.60;1.50;;;;;;;34.97;33.68;99347.25;5015863;28;20205;-70
2022/06/02 12:27:51;;;;;;;1.95;1.70;;;;;;;35.16;33.82;99335.81;5017711;28;20205;-69
2022/06/02 12:30:33;;;;;;;2.15;2.05;;;;;;;35.26;36.43;99352.22;5020519;28;20588;-70
2022/06/02 12:33:15;;;;;;;1.92;1.83;;;;;;;35.31;36.58;99343.63;5024995;28;20309;-70
2022/06/02 12:36:00;;;;;;;2.00;1.90;;;;;;;35.41;34.97;99345.84;5020757;28;20673;-70
2022/06/02 12:39:05;;;;;;;2.00;1.80;;;;;;;35.33;35.51;99336.22;5019523;28;20589;-70
2022/06/02 12:41:59;;;;;;;1.98;1.88;;;;;;;34.86;36.31;99337.22;5019637;28;20276;-70
2022/06/02 12:45:00;;;;;;;4.10;1.95;;;;;;;34.41;36.14;99327.28;5028908;28;20623;-69
2022/06/02 12:48:03;;;;;;;2.30;1.92;;;;;;;34.80;36.33;99330.03;5038016;28;20207;-69
2022/06/02 12:51:00;;;;;;;1.85;1.75;;;;;;;34.91;37.43;99329.44;5047017;28;20637;-69
2022/06/02 12:54:03;;;;;;;2.38;2.28;;;;;;;34.80;35.87;99330.03;5040841;28;20224;-69
2022/06/02 12:56:56;;;;;;;1.95;1.85;;;;;;;34.75;36.31;99333.31;5038790;28;20548;-69
2022/06/02 12:59:56;;;;;;;3.67;1.67;;;;;;;34.94;36.66;99323.69;5040519;28;20203;-69
2022/06/02 13:02:32;;;;;;;1.63;1.60;;;;;;;35.06;35.09;99323.91;5041200;28;20280;-69
2022/06/02 13:05:38;;;;;;;3.55;2.50;;;;;;;35.15;36.53;99318.22;5037967;28;20228;-70